Saint Augustine, Florida
Current Conditions -  °F | °C
As of 7:58 PM on Thursday 18 Dec 2014 (Local Time) from KSGJ Reporting Station
Clear Clear  
Wind Chill: 55°   Ceiling: Unl
Heat Index: 55°   Visibility: 10mi
Dew Point: 48°   Wind: 0mph
Humidity: 77%   Direction: NA
Pressure: 30.13"   Gusts: NA
Location:  29.97°N, 81.33°W
Report Text: KSGJ 190058Z 00000KT 10SM CLR 13/09 A3013 RMK AO2 SLP201 T01280089
Loading
Personal Weather Stations






























Interactive Weather Map New forecast layout! Learn more

10-Day Weather Forecast

Advertisements
Track Severe Weather on mobile